createdAt,value
2018-10-21T00:02:13.750Z,16
2018-10-21T00:07:16.137Z,19
2018-10-21T00:12:18.567Z,16
2018-10-21T00:17:21.019Z,16
2018-10-21T00:22:23.448Z,15
2018-10-21T00:27:25.891Z,17
2018-10-21T00:32:28.354Z,15
2018-10-21T00:37:30.838Z,17
2018-10-21T00:42:33.207Z,20
2018-10-21T00:47:35.657Z,13
2018-10-21T00:52:38.096Z,16
2018-10-21T00:57:40.595Z,13
2018-10-21T01:02:43.107Z,13
2018-10-21T01:07:45.406Z,14
2018-10-21T01:12:47.853Z,16
2018-10-21T01:17:50.302Z,13
2018-10-21T01:22:52.740Z,14
2018-10-21T01:27:55.171Z,14
2018-10-21T01:32:57.670Z,18
2018-10-21T01:38:00.156Z,15
2018-10-21T01:43:02.496Z,13
2018-10-21T01:48:05.028Z,15
2018-10-21T01:53:07.375Z,18
2018-10-21T01:58:09.820Z,16
2018-10-21T02:03:12.392Z,15
2018-10-21T02:08:14.697Z,17
2018-10-21T02:13:17.137Z,20
2018-10-21T02:18:19.582Z,22
2018-10-21T02:23:22.024Z,16
2018-10-21T02:28:24.452Z,17
2018-10-21T02:33:27.051Z,19
2018-10-21T02:38:29.347Z,15
2018-10-21T02:43:31.795Z,14
2018-10-21T02:48:34.216Z,18
2018-10-21T02:58:39.098Z,18
2018-10-21T03:03:41.546Z,20
2018-10-21T03:08:44.088Z,17
2018-10-21T03:13:46.416Z,18
2018-10-21T03:18:48.864Z,17
2018-10-21T03:23:51.286Z,19
2018-10-21T03:28:53.723Z,19
2018-10-21T03:33:56.428Z,20
2018-10-21T03:38:58.718Z,18
2018-10-21T03:44:01.052Z,20
2018-10-21T03:49:03.512Z,19
2018-10-21T03:54:05.973Z,18
2018-10-21T03:59:08.557Z,20
2018-10-21T04:04:10.935Z,20
2018-10-21T04:09:13.321Z,19
2018-10-21T04:14:15.755Z,21
2018-10-21T04:19:18.140Z,20
2018-10-21T04:24:20.608Z,19
2018-10-21T04:29:23.042Z,17
2018-10-21T04:34:25.502Z,22
2018-10-21T04:39:27.885Z,18
2018-10-21T04:44:30.339Z,18
2018-10-21T04:49:32.787Z,20
2018-10-21T04:54:35.229Z,20
2018-10-21T04:59:37.696Z,21
2018-10-21T05:04:40.104Z,22
2018-10-21T05:09:42.540Z,20
2018-10-21T05:14:44.972Z,22
2018-10-21T05:19:47.432Z,25
2018-10-21T05:24:49.853Z,20
2018-10-21T05:29:52.312Z,21
2018-10-21T05:34:54.776Z,20
2018-10-21T05:39:57.190Z,23
2018-10-21T05:44:59.615Z,23
2018-10-21T05:50:02.087Z,21
2018-10-21T05:55:04.515Z,25
2018-10-21T06:00:06.977Z,25
2018-10-21T06:05:09.409Z,23
2018-10-21T06:10:11.858Z,25
2018-10-21T06:15:14.244Z,23
2018-10-21T06:20:16.709Z,24
2018-10-21T06:25:19.128Z,23
2018-10-21T06:30:21.602Z,29
2018-10-21T06:35:24.041Z,33
2018-10-21T06:40:26.459Z,30
2018-10-21T06:45:28.963Z,30
2018-10-21T06:50:31.390Z,33
2018-10-21T06:55:33.776Z,29
2018-10-21T07:00:36.203Z,36
2018-10-21T07:05:38.664Z,40
2018-10-21T07:10:41.094Z,40
2018-10-21T07:15:43.577Z,36
2018-10-21T07:20:45.974Z,37
2018-10-21T07:25:48.427Z,35
2018-10-21T07:30:50.844Z,34
2018-10-21T07:35:53.390Z,34
2018-10-21T07:40:55.735Z,32
2018-10-21T07:45:58.218Z,33
2018-10-21T07:51:00.670Z,30
2018-10-21T07:56:03.060Z,26
2018-10-21T08:01:05.539Z,30
2018-10-21T08:06:07.949Z,27
2018-10-21T08:11:10.399Z,24
2018-10-21T08:16:12.890Z,27
2018-10-21T08:21:15.303Z,29
2018-10-21T08:26:17.710Z,29
2018-10-21T08:31:20.131Z,26
2018-10-21T08:36:22.610Z,29
2018-10-21T08:41:25.009Z,21
2018-10-21T08:46:27.681Z,17
2018-10-21T08:51:29.924Z,15
2018-10-21T08:56:32.346Z,19
2018-10-21T09:01:34.798Z,20
2018-10-21T09:06:37.218Z,17
2018-10-21T09:11:39.644Z,14
2018-10-21T09:16:42.285Z,11
2018-10-21T09:21:44.608Z,13
2018-10-21T09:26:47.117Z,14
2018-10-21T09:31:49.412Z,15
2018-10-21T09:36:51.860Z,16
2018-10-21T09:41:54.299Z,17
2018-10-21T09:46:56.738Z,17
2018-10-21T09:51:59.246Z,10
2018-10-21T09:57:01.611Z,12
2018-10-21T10:02:04.046Z,11
2018-10-21T10:07:06.506Z,11
2018-10-21T10:12:08.945Z,10
2018-10-21T10:17:11.381Z,11
2018-10-21T10:22:13.893Z,14
2018-10-21T10:27:16.260Z,12
2018-10-21T10:32:18.694Z,9
2018-10-21T10:37:21.139Z,11
2018-10-21T10:42:23.766Z,10
2018-10-21T10:47:26.020Z,8
2018-10-21T10:52:28.479Z,9
2018-10-21T10:57:30.917Z,7
2018-10-21T11:02:33.328Z,13
2018-10-21T11:07:35.784Z,7
2018-10-21T11:12:38.218Z,8
2018-10-21T11:17:40.682Z,6
2018-10-21T11:22:43.241Z,7
2018-10-21T11:27:45.549Z,7
2018-10-21T11:32:47.968Z,7
2018-10-21T11:37:50.504Z,6
2018-10-21T11:42:52.872Z,8
2018-10-21T11:47:55.304Z,8
2018-10-21T11:52:57.766Z,5
2018-10-21T11:58:00.230Z,7
2018-10-21T12:03:02.618Z,6
2018-10-21T12:08:05.075Z,7
2018-10-21T12:13:07.509Z,5
2018-10-21T12:18:09.956Z,5
2018-10-21T12:23:12.553Z,6
2018-10-21T12:28:14.906Z,4
2018-10-21T12:33:17.258Z,6
2018-10-21T12:38:19.697Z,4
2018-10-21T12:43:22.139Z,6
2018-10-21T12:48:24.585Z,9
2018-10-21T12:53:27.044Z,4
2018-10-21T12:58:29.476Z,7
2018-10-21T13:03:31.935Z,6
2018-10-21T13:08:34.378Z,6
2018-10-21T13:13:36.822Z,5
2018-10-21T13:18:39.238Z,4
2018-10-21T13:23:41.691Z,6
2018-10-21T13:28:44.188Z,5
2018-10-21T13:33:46.572Z,8
2018-10-21T13:38:49.012Z,4
2018-10-21T13:43:51.454Z,6
2018-10-21T13:48:53.935Z,5
2018-10-21T13:53:56.349Z,4
2018-10-21T13:58:58.807Z,4
2018-10-21T14:04:01.294Z,5
2018-10-21T14:09:03.671Z,5
2018-10-21T14:14:06.106Z,5
2018-10-21T14:19:08.552Z,6
2018-10-21T14:24:11.081Z,5
2018-10-21T14:29:13.443Z,5
2018-10-21T14:34:15.880Z,6
2018-10-21T14:39:18.432Z,6
2018-10-21T14:44:21.015Z,4
2018-10-21T14:49:23.208Z,5
2018-10-21T14:54:25.650Z,8
2018-10-21T14:59:28.097Z,6
2018-10-21T15:04:30.553Z,4
2018-10-21T15:09:32.986Z,6
2018-10-21T15:14:35.406Z,8
2018-10-21T15:19:37.847Z,6
2018-10-21T15:24:40.294Z,6
2018-10-21T15:29:42.837Z,10
2018-10-21T15:34:45.241Z,9
2018-10-21T15:39:47.751Z,9
2018-10-21T15:44:50.053Z,10
2018-10-21T15:49:52.523Z,7
2018-10-21T15:54:54.941Z,8
2018-10-21T15:59:57.373Z,8
2018-10-21T16:04:59.805Z,5
2018-10-21T16:10:02.311Z,5
2018-10-21T16:15:04.697Z,7
2018-10-21T16:20:07.196Z,7
2018-10-21T16:25:09.581Z,5
2018-10-21T16:30:12.015Z,9
2018-10-21T16:35:14.597Z,6
2018-10-21T16:40:16.949Z,5
2018-10-21T16:45:19.528Z,6
2018-10-21T16:50:21.777Z,8
2018-10-21T16:55:24.218Z,7
2018-10-21T17:00:26.825Z,7
2018-10-21T17:05:29.168Z,6
2018-10-21T17:10:32.057Z,7
2018-10-21T17:15:33.982Z,4
2018-10-21T17:20:36.420Z,7
2018-10-21T17:25:38.855Z,6
2018-10-21T17:30:41.304Z,9
2018-10-21T17:35:43.742Z,7
2018-10-21T17:40:46.276Z,14
2018-10-21T17:45:48.660Z,8
2018-10-21T17:50:51.059Z,18
2018-10-21T17:55:53.509Z,18
2018-10-21T18:00:55.967Z,27
2018-10-21T18:05:58.379Z,31
2018-10-21T18:11:00.822Z,33
2018-10-21T18:16:03.324Z,24
2018-10-21T18:21:05.798Z,21
2018-10-21T18:26:08.270Z,21
2018-10-21T18:31:10.630Z,21
2018-10-21T18:36:13.013Z,24
2018-10-21T18:41:15.717Z,21
2018-10-21T18:46:17.963Z,13
2018-10-21T18:51:20.364Z,12
2018-10-21T18:56:22.782Z,13
2018-10-21T19:01:25.221Z,20
2018-10-21T19:06:27.684Z,12
2018-10-21T19:11:30.098Z,11
2018-10-21T19:16:32.539Z,14
2018-10-21T19:21:34.982Z,10
2018-10-21T19:26:37.446Z,14
2018-10-21T19:31:39.865Z,14
2018-10-21T19:36:42.294Z,18
2018-10-21T19:41:44.761Z,15
2018-10-21T19:46:47.174Z,14
2018-10-21T19:51:49.630Z,9
2018-10-21T19:57:02.692Z,15
2018-10-21T20:01:54.505Z,9
2018-10-21T20:06:56.919Z,9
2018-10-21T20:11:59.445Z,7
2018-10-21T20:17:01.859Z,10
2018-10-21T20:22:04.338Z,14
2018-10-21T20:27:06.709Z,12
2018-10-21T20:32:09.131Z,14
2018-10-21T20:37:11.559Z,10
2018-10-21T20:42:14.140Z,12
2018-10-21T20:47:16.442Z,9
2018-10-21T20:52:18.893Z,9
2018-10-21T20:57:21.328Z,12
